Arnaudville, LA

12:35 PM CDT on October 30, 2014 (GMT -0500)
Pecaniere | Change Station
CLOSE
Current Station
Personal Weather Station
Location: Arnaudville, LA
Elevation: 30 ft
Nearby Weather Stations

Elev 30 ft 30.43 °N, 91.92 °W | Updated 7 minutes ago

Clear
Clear
73.2 °F
Feels Like 77 °F
N
5.8
Wind Variable Wind from ENE

Today
High -- | Low -- °F
--% Chance of Precip.
Yesterday
High -- | Low -- °F
Precip. -- in
7:20 AM 6:21 PM
Waxing Crescent, 46% visible
Pressure 30.13 in
Visibility 10.0 miles
Clouds Clear
Heat Index 77 °F
Dew Point 50 °F
Humidity 44%
Rainfall 0.00 in
Snow Depth Not available.
UV 7 out of 12
Pollen 2.50 out of 12
Air Quality Not available.
Flu Activity Not available.
METAR KLFT 301653Z 06008KT 10SM CLR 22/07 A3013 RMK AO2 SLP202 T02170067 $

More Conditions Fewer Conditions

Pressure 30.13 in
Visibility 10.0 miles
Clouds Clear
Heat Index 77 °F
Dew Point 50 °F
Humidity 44%
Rainfall 0.00 in
Snow Depth Not available.
UV 7 out of 12
Pollen 2.50 out of 12
Air Quality Not available.
Flu Activity Not available.
METAR KLFT 301653Z 06008KT 10SM CLR 22/07 A3013 RMK AO2 SLP202 T02170067 $

More Conditions Fewer Conditions

10-Day Weather Forecast

Almanac

Astronomy

Oct. 30, 2014 Rise Set
Actual Time
Civil Twilight
Nautical Twilight
Astronomical Twilight
Moon
Length of Visible Light
Length of Day
Tomorrow will be .
, % of the Moon is Illuminated

Today's Extremes

State Highs State Lows

Community

WunderPhotos

Upload Photos

1,766,409 photos uploaded!

WunderBlogs® & News

Nearby

Air Quality

  Air Quality AQ Index Pollutant
Not available.

Snow Depth

Station Depth Elevation

Earthquake Activity

City Distance Mag. Time & Date
Minimum magnitude displayed is 2.5.

Coastal Water Temperatures

Place Temperature

Nearby Weather Stations